createdAt,value
2017-10-02T00:00:26.737Z,10.40
2017-10-02T00:02:53.061Z,10.40
2017-10-02T00:05:19.383Z,10.40
2017-10-02T00:07:45.673Z,10.40
2017-10-02T00:10:11.978Z,10.40
2017-10-02T00:12:38.253Z,10.30
2017-10-02T00:15:04.558Z,10.20
2017-10-02T00:17:30.870Z,10.20
2017-10-02T00:19:57.158Z,10.10
2017-10-02T00:22:23.430Z,10.00
2017-10-02T00:24:49.728Z,9.90
2017-10-02T00:27:16.022Z,9.90
2017-10-02T00:29:44.053Z,9.90
2017-10-02T00:32:10.384Z,9.80
2017-10-02T00:34:36.676Z,9.80
2017-10-02T00:37:02.973Z,9.80
2017-10-02T00:39:29.301Z,9.70
2017-10-02T00:41:55.582Z,9.70
2017-10-02T00:44:21.869Z,9.60
2017-10-02T00:46:48.945Z,9.40
2017-10-02T00:49:15.220Z,9.40
2017-10-02T00:51:41.565Z,9.50
2017-10-02T00:54:07.881Z,9.40
2017-10-02T00:56:34.192Z,9.40
2017-10-02T00:59:00.485Z,9.40
2017-10-02T01:01:26.822Z,9.40
2017-10-02T01:03:53.107Z,9.40
2017-10-02T01:06:20.442Z,9.40
2017-10-02T01:08:46.805Z,9.40
2017-10-02T01:11:13.850Z,9.40
2017-10-02T01:13:40.878Z,9.40
2017-10-02T01:16:07.236Z,9.40
2017-10-02T01:18:34.250Z,9.40
2017-10-02T01:21:00.511Z,9.30
2017-10-02T01:23:27.545Z,9.30
2017-10-02T01:25:53.829Z,9.30
2017-10-02T01:28:20.134Z,9.30
2017-10-02T01:30:46.438Z,9.30
2017-10-02T01:33:13.457Z,9.20
2017-10-02T01:35:39.779Z,9.20
2017-10-02T01:38:06.082Z,9.20
2017-10-02T01:40:32.406Z,9.10
2017-10-02T01:42:58.687Z,9.10
2017-10-02T01:45:24.988Z,9.10
2017-10-02T01:47:51.257Z,9.10
2017-10-02T01:50:18.293Z,9.00
2017-10-02T01:52:44.601Z,9.00
2017-10-02T01:55:10.903Z,8.90
2017-10-02T01:57:37.173Z,8.90
2017-10-02T02:00:03.499Z,8.80
2017-10-02T02:02:29.777Z,8.80
2017-10-02T02:04:56.039Z,8.80
2017-10-02T02:07:22.342Z,8.80
2017-10-02T02:09:48.620Z,8.70
2017-10-02T02:12:14.894Z,8.70
2017-10-02T02:14:41.214Z,8.80
2017-10-02T02:17:08.241Z,8.80
2017-10-02T02:19:34.518Z,8.80
2017-10-02T02:22:00.818Z,8.80
2017-10-02T02:24:27.833Z,8.80
2017-10-02T02:26:55.125Z,8.80
2017-10-02T02:29:21.426Z,8.80
2017-10-02T02:31:47.718Z,8.70
2017-10-02T02:34:13.974Z,8.70
2017-10-02T02:36:40.299Z,8.70
2017-10-02T02:39:06.572Z,8.60
2017-10-02T02:41:32.832Z,8.60
2017-10-02T02:43:59.161Z,8.50
2017-10-02T02:46:25.430Z,8.40
2017-10-02T02:48:52.453Z,8.30
2017-10-02T02:51:18.738Z,8.30
2017-10-02T02:53:44.998Z,8.30
2017-10-02T02:56:11.270Z,8.30
2017-10-02T02:58:38.301Z,8.30
2017-10-02T03:01:04.588Z,8.30
2017-10-02T03:03:30.859Z,8.30
2017-10-02T03:05:57.153Z,8.30
2017-10-02T03:08:23.418Z,8.40
2017-10-02T03:10:49.678Z,8.50
2017-10-02T03:13:16.728Z,8.50
2017-10-02T03:15:43.021Z,8.40
2017-10-02T03:18:09.302Z,8.60
2017-10-02T03:20:36.346Z,8.60
2017-10-02T03:23:02.629Z,8.50
2017-10-02T03:25:28.928Z,8.60
2017-10-02T03:27:55.218Z,8.60
2017-10-02T03:30:21.500Z,8.60
2017-10-02T03:32:47.792Z,8.60
2017-10-02T03:35:14.095Z,8.60
2017-10-02T03:37:41.096Z,8.50
2017-10-02T03:40:07.369Z,8.50
2017-10-02T03:42:34.414Z,8.50
2017-10-02T03:45:00.687Z,8.50
2017-10-02T03:47:26.981Z,8.40
2017-10-02T03:49:53.266Z,8.40
2017-10-02T03:52:19.541Z,8.30
2017-10-02T03:54:46.550Z,8.30
2017-10-02T03:57:12.881Z,8.30
2017-10-02T03:59:39.162Z,8.30
2017-10-02T04:02:06.237Z,8.20
2017-10-02T04:04:32.538Z,8.20
2017-10-02T04:06:58.813Z,8.20
2017-10-02T04:09:25.114Z,8.20
2017-10-02T04:11:51.413Z,8.10
2017-10-02T04:14:17.697Z,8.10
2017-10-02T04:16:43.957Z,8.10
2017-10-02T04:19:11.005Z,8.10
2017-10-02T04:21:38.047Z,8.10
2017-10-02T04:24:05.082Z,8.10
2017-10-02T04:26:31.369Z,8.00
2017-10-02T04:28:57.683Z,8.00
2017-10-02T04:31:23.970Z,8.10
2017-10-02T04:33:50.257Z,8.10
2017-10-02T04:36:16.526Z,8.10
2017-10-02T04:38:42.809Z,8.10
2017-10-02T04:41:09.119Z,8.10
2017-10-02T04:43:35.377Z,8.10
2017-10-02T04:46:01.658Z,8.10
2017-10-02T04:48:28.692Z,8.10
2017-10-02T04:53:24.390Z,8.10
2017-10-02T04:55:50.690Z,8.10
2017-10-02T04:58:16.950Z,8.10
2017-10-02T05:00:43.234Z,8.10
2017-10-02T05:03:10.252Z,8.20
2017-10-02T05:05:36.522Z,8.20
2017-10-02T05:08:02.793Z,8.30
2017-10-02T05:10:29.116Z,8.40
2017-10-02T05:12:55.393Z,8.40
2017-10-02T05:15:22.410Z,8.40
2017-10-02T05:17:49.730Z,8.30
2017-10-02T05:20:16.017Z,8.40
2017-10-02T05:22:43.055Z,8.40
2017-10-02T05:25:10.101Z,8.40
2017-10-02T05:27:38.142Z,8.40
2017-10-02T05:30:04.463Z,8.40
2017-10-02T05:32:30.773Z,8.40
2017-10-02T05:34:57.795Z,8.60
2017-10-02T05:37:24.102Z,8.50
2017-10-02T05:39:50.401Z,8.60
2017-10-02T05:42:16.701Z,8.60
2017-10-02T05:44:42.969Z,8.50
2017-10-02T05:47:09.249Z,8.60
2017-10-02T05:49:35.529Z,8.60
2017-10-02T05:52:01.808Z,8.80
2017-10-02T05:54:28.137Z,8.80
2017-10-02T05:56:54.448Z,8.70
2017-10-02T05:59:21.488Z,8.90
2017-10-02T06:01:48.525Z,8.90
2017-10-02T06:04:14.801Z,8.90
2017-10-02T06:06:41.094Z,9.00
2017-10-02T06:09:08.134Z,9.10
2017-10-02T06:11:35.153Z,9.20
2017-10-02T06:14:01.428Z,9.20
2017-10-02T06:16:27.746Z,9.30
2017-10-02T06:18:54.757Z,9.50
2017-10-02T06:21:21.037Z,9.40
2017-10-02T06:23:47.325Z,9.60
2017-10-02T06:26:13.615Z,9.70
2017-10-02T06:28:43.829Z,9.80
2017-10-02T06:31:10.139Z,9.80
2017-10-02T06:33:37.155Z,10.00
2017-10-02T06:36:03.435Z,10.00
2017-10-02T06:38:29.750Z,10.10
2017-10-02T06:40:57.022Z,10.20
2017-10-02T06:43:23.306Z,10.20
2017-10-02T06:45:50.342Z,10.40
2017-10-02T06:48:16.663Z,10.40
2017-10-02T06:50:43.034Z,10.50
2017-10-02T06:53:09.345Z,10.60
2017-10-02T06:55:35.619Z,10.70
2017-10-02T06:58:01.901Z,10.80
2017-10-02T07:00:28.933Z,11.10
2017-10-02T07:02:55.201Z,11.10
2017-10-02T07:05:21.478Z,11.10
2017-10-02T07:07:47.774Z,11.20
2017-10-02T07:10:14.050Z,11.30
2017-10-02T07:12:40.344Z,11.30
2017-10-02T07:15:07.010Z,11.50
2017-10-02T07:17:33.284Z,11.60
2017-10-02T07:20:00.305Z,12.10
2017-10-02T07:22:26.602Z,12.00
2017-10-02T07:24:52.907Z,12.30
2017-10-02T07:27:19.233Z,12.30
2017-10-02T07:29:45.517Z,12.40
2017-10-02T07:32:11.794Z,12.50
2017-10-02T07:34:38.075Z,12.60
2017-10-02T07:37:04.412Z,12.70
2017-10-02T07:39:30.681Z,12.70
2017-10-02T07:41:56.967Z,12.90
2017-10-02T07:44:23.253Z,12.80
2017-10-02T07:46:49.557Z,12.70
2017-10-02T07:49:15.838Z,12.80
2017-10-02T07:51:42.131Z,12.90
2017-10-02T07:54:08.381Z,12.90
2017-10-02T07:56:34.657Z,13.10
2017-10-02T07:59:01.690Z,13.40
2017-10-02T08:01:28.001Z,13.40
2017-10-02T08:03:55.278Z,13.50
2017-10-02T08:06:22.327Z,13.70
2017-10-02T08:08:49.338Z,13.80
2017-10-02T08:11:15.618Z,13.80
2017-10-02T08:13:42.216Z,13.90
2017-10-02T08:16:08.500Z,14.20
2017-10-02T08:18:34.785Z,14.40
2017-10-02T08:21:01.110Z,14.40
2017-10-02T08:23:27.397Z,14.70
2017-10-02T08:25:53.693Z,14.80
2017-10-02T08:28:20.762Z,14.90
2017-10-02T08:30:47.079Z,14.90
2017-10-02T08:33:13.379Z,15.00
2017-10-02T08:35:39.741Z,15.10
2017-10-02T08:38:06.063Z,15.40
2017-10-02T08:40:33.081Z,15.60
2017-10-02T08:43:00.377Z,15.60
2017-10-02T08:45:26.653Z,15.80
2017-10-02T08:47:52.931Z,15.80
2017-10-02T08:50:19.218Z,16.00
2017-10-02T08:52:45.493Z,16.30
2017-10-02T08:55:11.770Z,16.50
2017-10-02T08:57:38.045Z,16.80
2017-10-02T09:00:04.323Z,16.80
2017-10-02T09:02:30.611Z,16.90
2017-10-02T09:04:57.231Z,17.00
2017-10-02T09:07:24.249Z,17.30
2017-10-02T09:09:50.527Z,17.30
2017-10-02T09:12:17.553Z,17.60
2017-10-02T09:14:44.834Z,17.50
2017-10-02T09:17:11.850Z,18.00
2017-10-02T09:19:38.895Z,18.10
2017-10-02T09:22:05.931Z,18.10
2017-10-02T09:24:33.006Z,18.20
2017-10-02T09:26:59.301Z,18.20
2017-10-02T09:29:25.584Z,18.40
2017-10-02T09:31:51.865Z,18.10
2017-10-02T09:34:18.930Z,18.30
2017-10-02T09:36:45.978Z,18.50
2017-10-02T09:39:12.266Z,18.50
2017-10-02T09:41:38.577Z,18.40
2017-10-02T09:44:04.862Z,18.30
2017-10-02T09:46:31.868Z,18.40
2017-10-02T09:48:58.164Z,18.30
2017-10-02T09:51:24.434Z,18.30
2017-10-02T09:53:50.726Z,18.20
2017-10-02T09:56:17.029Z,18.40
2017-10-02T09:58:43.349Z,18.50
2017-10-02T10:01:10.371Z,18.70
2017-10-02T10:03:36.697Z,18.70
2017-10-02T10:06:03.014Z,18.90
2017-10-02T10:08:29.319Z,19.00
2017-10-02T10:10:55.620Z,19.00
2017-10-02T10:13:22.673Z,19.00
2017-10-02T10:15:48.950Z,18.90
2017-10-02T10:18:15.253Z,18.90
2017-10-02T10:20:41.525Z,18.80
2017-10-02T10:23:07.807Z,18.90
2017-10-02T10:25:34.126Z,19.30
2017-10-02T10:28:00.411Z,19.50
2017-10-02T10:30:26.750Z,19.70
2017-10-02T10:32:53.037Z,20.00
2017-10-02T10:35:19.311Z,20.10
2017-10-02T10:37:46.639Z,19.90
2017-10-02T10:40:12.921Z,19.90
2017-10-02T10:42:39.190Z,19.90
2017-10-02T10:45:05.477Z,20.50
2017-10-02T10:47:31.769Z,20.70
2017-10-02T10:49:58.054Z,20.90
2017-10-02T10:52:24.320Z,21.30
2017-10-02T10:54:50.629Z,21.30
2017-10-02T10:57:16.927Z,21.40
2017-10-02T10:59:43.191Z,21.10
2017-10-02T11:02:09.526Z,20.80
2017-10-02T11:04:35.798Z,20.60
2017-10-02T11:07:02.818Z,20.60
2017-10-02T11:09:29.110Z,20.60
2017-10-02T11:11:55.352Z,20.70
2017-10-02T11:14:21.637Z,20.50
2017-10-02T11:16:48.710Z,20.50
2017-10-02T11:19:14.998Z,20.50
2017-10-02T11:21:42.051Z,20.20
2017-10-02T11:24:09.086Z,20.00
2017-10-02T11:26:36.105Z,20.00
2017-10-02T11:29:02.380Z,20.00
2017-10-02T11:31:29.410Z,19.90
2017-10-02T11:33:55.688Z,19.80
2017-10-02T11:36:21.994Z,19.80
2017-10-02T11:38:48.290Z,19.70
2017-10-02T11:41:14.570Z,19.80
2017-10-02T11:43:40.849Z,19.90
2017-10-02T11:46:07.166Z,20.30
2017-10-02T11:48:33.433Z,20.60
2017-10-02T11:51:00.457Z,21.30
2017-10-02T11:53:26.754Z,21.30
2017-10-02T11:55:53.014Z,21.10
2017-10-02T11:58:19.313Z,20.90
2017-10-02T12:00:46.686Z,20.90
2017-10-02T12:03:12.969Z,20.90
2017-10-02T12:05:39.229Z,21.00
2017-10-02T12:08:05.538Z,21.00
2017-10-02T12:10:31.785Z,21.00
2017-10-02T12:12:58.046Z,20.90
2017-10-02T12:15:24.354Z,20.90
2017-10-02T12:17:50.621Z,21.00
2017-10-02T12:20:17.637Z,21.20
2017-10-02T12:22:43.925Z,21.10
2017-10-02T12:25:10.177Z,21.30
2017-10-02T12:27:36.439Z,21.40
2017-10-02T12:30:03.489Z,21.30
2017-10-02T12:32:30.484Z,21.40
2017-10-02T12:34:56.758Z,21.30
2017-10-02T12:37:24.373Z,22.20
2017-10-02T12:39:51.980Z,22.10
2017-10-02T12:42:19.024Z,22.90
2017-10-02T12:44:45.313Z,22.90
2017-10-02T12:47:11.609Z,23.10
2017-10-02T12:49:37.898Z,23.00
2017-10-02T12:52:04.188Z,23.20
2017-10-02T12:54:30.500Z,23.50
2017-10-02T12:56:56.768Z,23.10
2017-10-02T12:59:23.045Z,22.20
2017-10-02T13:01:51.093Z,21.50
2017-10-02T13:04:17.381Z,21.40
2017-10-02T13:06:44.418Z,21.50
2017-10-02T13:09:10.714Z,21.50
2017-10-02T13:11:37.728Z,21.20
2017-10-02T13:14:04.006Z,21.20
2017-10-02T13:16:30.266Z,21.10
2017-10-02T13:18:56.534Z,20.90
2017-10-02T13:21:22.829Z,20.80
2017-10-02T13:23:49.093Z,20.80
2017-10-02T13:26:15.350Z,20.90
2017-10-02T13:28:41.646Z,20.90
2017-10-02T13:31:08.704Z,20.50
2017-10-02T13:33:35.716Z,20.30
2017-10-02T13:36:02.006Z,20.30
2017-10-02T13:38:28.286Z,20.10
2017-10-02T13:40:54.566Z,19.90
2017-10-02T13:43:20.865Z,19.60
2017-10-02T13:45:47.963Z,19.50
2017-10-02T13:48:14.234Z,19.40
2017-10-02T13:50:40.538Z,19.50
2017-10-02T13:53:06.802Z,19.40
2017-10-02T13:55:33.812Z,19.50
2017-10-02T13:58:00.085Z,19.50
2017-10-02T14:00:27.173Z,19.40
2017-10-02T14:02:53.442Z,19.40
2017-10-02T14:05:19.742Z,19.40
2017-10-02T14:07:46.061Z,19.40
2017-10-02T14:10:12.346Z,19.40
2017-10-02T14:12:39.433Z,19.30
2017-10-02T14:15:05.705Z,19.30
2017-10-02T14:17:31.966Z,19.20
2017-10-02T14:19:58.260Z,18.90
2017-10-02T14:22:24.547Z,18.70
2017-10-02T14:24:50.829Z,18.40
2017-10-02T14:27:17.126Z,18.20
2017-10-02T14:29:43.405Z,18.20
2017-10-02T14:32:10.435Z,18.10
2017-10-02T14:34:37.516Z,18.10
2017-10-02T14:37:03.795Z,18.10
2017-10-02T14:39:30.065Z,18.10
2017-10-02T14:41:56.373Z,18.20
2017-10-02T14:44:23.385Z,18.20
2017-10-02T14:46:49.662Z,18.20
2017-10-02T14:49:16.006Z,18.10
2017-10-02T14:51:42.290Z,18.00
2017-10-02T14:54:08.582Z,17.90
2017-10-02T14:56:35.890Z,17.90
2017-10-02T14:59:02.906Z,17.70
2017-10-02T15:01:31.430Z,17.60
2017-10-02T15:03:57.767Z,17.60
2017-10-02T15:06:24.038Z,17.50
2017-10-02T15:08:50.317Z,17.40
2017-10-02T15:11:16.613Z,17.20
2017-10-02T15:13:42.899Z,17.20
2017-10-02T15:16:09.200Z,17.20
2017-10-02T15:18:36.249Z,17.00
2017-10-02T15:21:04.305Z,16.70
2017-10-02T15:23:30.580Z,16.70
2017-10-02T15:25:56.944Z,16.60
2017-10-02T15:28:23.231Z,16.40
2017-10-02T15:30:49.489Z,16.30
2017-10-02T15:33:15.796Z,16.10
2017-10-02T15:35:42.088Z,16.10
2017-10-02T15:38:09.147Z,15.80
2017-10-02T15:40:35.461Z,15.70
2017-10-02T15:43:02.529Z,15.60
2017-10-02T15:45:28.802Z,15.60
2017-10-02T15:47:55.113Z,15.70
2017-10-02T15:50:21.399Z,15.80
2017-10-02T15:52:48.439Z,15.60
2017-10-02T15:55:15.482Z,15.60
2017-10-02T15:57:41.761Z,15.60
2017-10-02T16:00:08.042Z,15.70
2017-10-02T16:02:35.081Z,15.50
2017-10-02T16:05:01.418Z,15.50
2017-10-02T16:07:27.718Z,15.50
2017-10-02T16:09:54.029Z,15.50
2017-10-02T16:12:20.341Z,15.60
2017-10-02T16:14:46.633Z,15.60
2017-10-02T16:17:12.933Z,15.60
2017-10-02T16:19:39.222Z,15.60
2017-10-02T16:22:05.497Z,15.60
2017-10-02T16:24:31.798Z,15.50
2017-10-02T16:26:58.824Z,15.50
2017-10-02T16:29:25.105Z,15.50
2017-10-02T16:31:51.393Z,15.50
2017-10-02T16:34:17.670Z,15.50
2017-10-02T16:36:44.971Z,15.40
2017-10-02T16:39:12.251Z,15.40
2017-10-02T16:41:38.541Z,15.40
2017-10-02T16:44:05.574Z,15.50
2017-10-02T16:46:33.650Z,15.60
2017-10-02T16:49:00.674Z,15.80
2017-10-02T16:51:26.963Z,15.80
2017-10-02T16:53:53.261Z,15.80
2017-10-02T16:56:20.270Z,15.70
2017-10-02T16:58:47.267Z,15.70
2017-10-02T17:01:13.566Z,15.60
2017-10-02T17:03:39.850Z,15.60
2017-10-02T17:06:06.138Z,15.50
2017-10-02T17:08:33.178Z,15.50
2017-10-02T17:11:01.219Z,15.60
2017-10-02T17:13:27.525Z,15.50
2017-10-02T17:15:53.805Z,15.50
2017-10-02T17:18:20.834Z,15.40
2017-10-02T17:20:47.138Z,15.40
2017-10-02T17:23:13.434Z,15.30
2017-10-02T17:25:39.718Z,15.30
2017-10-02T17:28:06.008Z,15.30
2017-10-02T17:30:32.305Z,15.30
2017-10-02T17:32:59.327Z,15.30
2017-10-02T17:35:25.610Z,15.30
2017-10-02T17:37:51.916Z,15.50
2017-10-02T17:40:18.202Z,15.40
2017-10-02T17:42:44.480Z,15.30
2017-10-02T17:45:10.832Z,15.20
2017-10-02T17:47:37.115Z,15.20
2017-10-02T17:50:04.179Z,15.20
2017-10-02T17:52:30.521Z,15.20
2017-10-02T17:54:56.810Z,15.10
2017-10-02T17:57:23.120Z,15.20
2017-10-02T17:59:49.418Z,15.20
2017-10-02T18:02:15.695Z,15.20
2017-10-02T18:04:41.990Z,15.20
2017-10-02T18:07:08.289Z,15.20
2017-10-02T18:09:34.583Z,15.10
2017-10-02T18:12:00.879Z,15.10
2017-10-02T18:14:27.173Z,15.10
2017-10-02T18:16:54.220Z,15.10
2017-10-02T18:19:20.511Z,15.10
2017-10-02T18:21:46.807Z,15.20
2017-10-02T18:24:13.082Z,15.20
2017-10-02T18:26:39.377Z,15.20
2017-10-02T18:29:05.681Z,15.10
2017-10-02T18:31:31.961Z,15.10
2017-10-02T18:33:58.241Z,15.00
2017-10-02T18:36:24.553Z,15.00
2017-10-02T18:38:51.733Z,14.90
2017-10-02T18:41:18.013Z,14.90
2017-10-02T18:43:44.406Z,15.00
2017-10-02T18:46:10.745Z,15.00
2017-10-02T18:48:37.054Z,15.10
2017-10-02T18:51:03.379Z,15.10
2017-10-02T18:53:29.649Z,15.10
2017-10-02T18:55:55.945Z,15.10
2017-10-02T18:58:22.248Z,15.10
2017-10-02T19:00:48.550Z,15.10
2017-10-02T19:03:14.842Z,15.00
2017-10-02T19:05:41.166Z,14.90
2017-10-02T19:08:07.451Z,14.80
2017-10-02T19:10:34.460Z,14.90
2017-10-02T19:13:00.754Z,14.90
2017-10-02T19:15:27.038Z,14.90
2017-10-02T19:17:53.310Z,14.90
2017-10-02T19:20:19.617Z,14.80
2017-10-02T19:22:46.666Z,14.50
2017-10-02T19:25:13.677Z,14.40
2017-10-02T19:27:39.978Z,14.40
2017-10-02T19:30:06.282Z,14.30
2017-10-02T19:32:32.566Z,14.40
2017-10-02T19:34:58.849Z,14.30
2017-10-02T19:37:26.169Z,14.20
2017-10-02T19:39:52.445Z,14.30
2017-10-02T19:42:18.738Z,14.40
2017-10-02T19:44:46.833Z,14.30
2017-10-02T19:47:13.101Z,14.30
2017-10-02T19:49:39.399Z,14.30
2017-10-02T19:52:05.686Z,14.30
2017-10-02T19:54:32.741Z,14.20
2017-10-02T19:56:59.777Z,14.20
2017-10-02T19:59:26.078Z,14.20
2017-10-02T20:01:52.358Z,14.10
2017-10-02T20:04:18.650Z,14.10
2017-10-02T20:06:44.965Z,14.00
2017-10-02T20:09:11.999Z,14.00
2017-10-02T20:11:38.559Z,14.00
2017-10-02T20:14:04.837Z,14.00
2017-10-02T20:16:31.102Z,14.00
2017-10-02T20:18:57.413Z,14.00
2017-10-02T20:21:23.689Z,14.00
2017-10-02T20:23:49.953Z,14.10
2017-10-02T20:26:16.240Z,14.10
2017-10-02T20:28:42.520Z,14.20
2017-10-02T20:31:08.788Z,14.20
2017-10-02T20:33:35.126Z,14.20
2017-10-02T20:36:01.437Z,14.30
2017-10-02T20:38:27.726Z,14.20
2017-10-02T20:40:54.046Z,14.20
2017-10-02T20:43:20.317Z,14.30
2017-10-02T20:45:46.593Z,14.30
2017-10-02T20:48:13.630Z,14.30
2017-10-02T20:50:40.654Z,14.30
2017-10-02T20:53:06.947Z,14.20
2017-10-02T20:55:33.237Z,14.20
2017-10-02T20:58:00.247Z,14.20
2017-10-02T21:00:26.526Z,14.20
2017-10-02T21:02:53.575Z,14.20
2017-10-02T21:05:20.599Z,14.20
2017-10-02T21:07:47.631Z,14.20
2017-10-02T21:10:13.946Z,14.20
2017-10-02T21:12:40.223Z,14.20
2017-10-02T21:15:07.241Z,14.30
2017-10-02T21:17:33.537Z,14.30
2017-10-02T21:19:59.816Z,14.30
2017-10-02T21:22:26.908Z,14.30
2017-10-02T21:24:53.227Z,14.30
2017-10-02T21:27:19.518Z,14.40
2017-10-02T21:29:45.810Z,14.40
2017-10-02T21:32:12.161Z,14.40
2017-10-02T21:34:38.429Z,14.50
2017-10-02T21:37:05.469Z,14.50
2017-10-02T21:39:32.513Z,14.50
2017-10-02T21:41:59.534Z,14.50
2017-10-02T21:44:25.809Z,14.50
2017-10-02T21:46:52.102Z,14.50
2017-10-02T21:49:18.373Z,14.50
2017-10-02T21:51:44.646Z,14.60
2017-10-02T21:54:10.941Z,14.60
2017-10-02T21:56:37.213Z,14.50
2017-10-02T21:59:03.496Z,14.50
2017-10-02T22:01:29.798Z,14.50
2017-10-02T22:03:56.825Z,14.60
2017-10-02T22:06:23.837Z,14.60
2017-10-02T22:08:50.151Z,14.60
2017-10-02T22:11:16.415Z,14.80
2017-10-02T22:13:42.685Z,15.00
2017-10-02T22:16:08.998Z,15.00
2017-10-02T22:18:36.024Z,15.00
2017-10-02T22:21:02.302Z,14.90
2017-10-02T22:23:28.609Z,14.90
2017-10-02T22:25:55.625Z,14.70
2017-10-02T22:28:21.893Z,14.60
2017-10-02T22:30:48.194Z,14.60
2017-10-02T22:33:14.466Z,14.70
2017-10-02T22:35:40.750Z,14.60
2017-10-02T22:38:07.038Z,14.60
2017-10-02T22:40:33.317Z,14.50
2017-10-02T22:43:00.353Z,14.50
2017-10-02T22:45:26.644Z,14.50
2017-10-02T22:47:52.933Z,14.50
2017-10-02T22:50:19.948Z,14.50
2017-10-02T22:52:46.237Z,14.50
2017-10-02T22:55:12.516Z,14.50
2017-10-02T22:57:38.794Z,14.50
2017-10-02T23:00:05.113Z,14.60
2017-10-02T23:02:31.454Z,14.60
2017-10-02T23:04:57.737Z,14.60
2017-10-02T23:07:24.049Z,14.50
2017-10-02T23:09:50.326Z,14.50
2017-10-02T23:12:16.602Z,14.50
2017-10-02T23:14:42.889Z,14.40
2017-10-02T23:17:09.177Z,14.50
2017-10-02T23:19:35.442Z,14.50
2017-10-02T23:22:01.745Z,14.50
2017-10-02T23:24:28.758Z,14.60
2017-10-02T23:26:55.034Z,14.60
2017-10-02T23:29:22.052Z,14.70
2017-10-02T23:31:48.350Z,14.70
2017-10-02T23:34:14.621Z,14.80
2017-10-02T23:36:40.921Z,14.70
2017-10-02T23:39:07.206Z,14.80
2017-10-02T23:41:33.474Z,14.80
2017-10-02T23:43:59.774Z,14.80
2017-10-02T23:46:26.048Z,14.80
2017-10-02T23:48:52.326Z,14.80
2017-10-02T23:51:18.625Z,14.80
2017-10-02T23:53:45.645Z,14.80
2017-10-02T23:56:11.929Z,14.80
2017-10-02T23:58:38.226Z,14.80
